createdAt,value
2022-12-04T00:01:08.355Z,8.89
2022-12-04T00:03:34.930Z,8.88
2022-12-04T00:06:07.515Z,8.97
2022-12-04T00:08:34.356Z,8.98
2022-12-04T00:11:01.700Z,8.99
2022-12-04T00:13:28.246Z,8.96
2022-12-04T00:15:54.811Z,8.90
2022-12-04T00:18:21.936Z,8.90
2022-12-04T00:20:48.626Z,9.01
2022-12-04T00:23:15.192Z,8.91
2022-12-04T00:25:41.766Z,9.00
2022-12-04T00:28:09.263Z,8.95
2022-12-04T00:30:35.793Z,8.94
2022-12-04T00:33:02.284Z,8.99
2022-12-04T00:35:28.810Z,9.00
2022-12-04T00:37:55.301Z,9.04
2022-12-04T00:40:21.879Z,8.89
2022-12-04T00:42:48.401Z,8.87
2022-12-04T00:45:15.024Z,8.93
2022-12-04T00:47:41.590Z,8.97
2022-12-04T00:50:08.698Z,9.10
2022-12-04T00:52:35.248Z,8.93
2022-12-04T00:55:01.814Z,8.86
2022-12-04T00:57:28.343Z,8.93
2022-12-04T00:59:55.196Z,9.02
2022-12-04T01:02:21.842Z,9.05
2022-12-04T01:04:48.412Z,9.12
2022-12-04T01:07:14.976Z,9.04
2022-12-04T01:09:41.479Z,9.05
2022-12-04T01:12:08.121Z,9.08
2022-12-04T01:14:34.659Z,9.12
2022-12-04T01:17:01.234Z,8.92
2022-12-04T01:19:27.874Z,8.89
2022-12-04T01:21:54.387Z,8.94
2022-12-04T01:24:21.418Z,9.01
2022-12-04T01:26:47.980Z,9.07
2022-12-04T01:29:14.546Z,9.02
2022-12-04T01:31:41.199Z,9.11
2022-12-04T01:34:07.848Z,9.11
2022-12-04T01:36:34.359Z,9.16
2022-12-04T01:39:00.871Z,9.12
2022-12-04T01:41:32.868Z,9.17
2022-12-04T01:44:12.361Z,9.17
2022-12-04T01:46:40.645Z,8.95
2022-12-04T01:49:12.600Z,9.15
2022-12-04T01:51:48.410Z,8.89
2022-12-04T01:54:21.735Z,8.78
2022-12-04T01:56:53.975Z,8.96
2022-12-04T01:59:24.108Z,8.92
2022-12-04T02:01:59.595Z,8.66
2022-12-04T02:04:26.404Z,8.89
2022-12-04T02:06:52.936Z,8.81
2022-12-04T02:09:26.207Z,9.01
2022-12-04T02:12:21.506Z,8.98
2022-12-04T02:15:06.500Z,9.03
2022-12-04T02:17:48.077Z,9.04
2022-12-04T02:20:14.584Z,9.07
2022-12-04T02:22:50.007Z,9.02
2022-12-04T02:25:38.393Z,9.08
2022-12-04T02:28:28.446Z,9.10
2022-12-04T02:31:00.724Z,9.11
2022-12-04T02:33:39.097Z,9.08
2022-12-04T02:36:19.047Z,8.86
2022-12-04T02:39:01.345Z,8.98
2022-12-04T02:41:36.162Z,8.85
2022-12-04T02:44:14.397Z,8.98
2022-12-04T02:46:45.623Z,8.97
2022-12-04T02:49:25.133Z,8.79
2022-12-04T02:51:55.170Z,8.94
2022-12-04T02:54:31.873Z,8.90
2022-12-04T02:56:59.813Z,8.85
2022-12-04T02:59:34.586Z,9.03
2022-12-04T03:02:08.080Z,8.87
2022-12-04T03:04:36.249Z,8.99
2022-12-04T03:07:17.409Z,8.94
2022-12-04T03:09:51.202Z,9.12
2022-12-04T03:12:20.718Z,8.50
2022-12-04T03:14:54.484Z,8.57
2022-12-04T03:17:27.373Z,8.49
2022-12-04T03:19:58.758Z,8.38
2022-12-04T03:22:26.277Z,8.38
2022-12-04T03:24:55.280Z,8.48
2022-12-04T03:27:36.459Z,8.39
2022-12-04T03:30:19.179Z,8.35
2022-12-04T03:32:55.188Z,8.45
2022-12-04T03:35:26.367Z,8.54
2022-12-04T03:38:04.727Z,8.53
2022-12-04T03:40:46.514Z,8.58
2022-12-04T03:43:51.095Z,8.47
2022-12-04T03:46:20.526Z,8.63
2022-12-04T03:48:50.641Z,8.47
2022-12-04T03:51:30.072Z,8.54
2022-12-04T03:54:02.504Z,8.56
2022-12-04T03:56:36.525Z,8.48
2022-12-04T03:59:12.518Z,8.43
2022-12-04T04:01:44.581Z,8.30
2022-12-04T04:04:18.079Z,8.35
2022-12-04T04:06:57.224Z,8.46
2022-12-04T04:09:26.288Z,8.44
2022-12-04T04:12:25.121Z,8.52
2022-12-04T04:15:13.301Z,8.53
2022-12-04T04:18:02.729Z,8.33
2022-12-04T04:20:55.308Z,8.49
2022-12-04T04:23:42.947Z,8.41
2022-12-04T04:26:13.171Z,8.43
2022-12-04T04:28:41.858Z,8.08
2022-12-04T04:31:32.365Z,8.37
2022-12-04T04:34:39.422Z,8.18
2022-12-04T04:37:34.299Z,8.41
2022-12-04T04:40:09.997Z,8.43
2022-12-04T04:42:44.815Z,8.44
2022-12-04T04:45:15.780Z,8.48
2022-12-04T04:48:04.050Z,8.53
2022-12-04T04:50:33.198Z,8.54
2022-12-04T04:53:08.336Z,8.54
2022-12-04T04:55:36.661Z,8.52
2022-12-04T04:58:11.872Z,8.60
2022-12-04T05:00:39.132Z,8.35
2022-12-04T05:03:06.283Z,8.44
2022-12-04T05:05:32.933Z,8.56
2022-12-04T05:07:59.470Z,8.60
2022-12-04T05:10:26.010Z,8.59
2022-12-04T05:12:52.508Z,8.52
2022-12-04T05:15:19.024Z,8.57
2022-12-04T05:17:45.521Z,8.59
2022-12-04T05:20:12.150Z,8.67
2022-12-04T05:22:38.740Z,8.68
2022-12-04T05:25:06.151Z,8.77
2022-12-04T05:27:33.113Z,8.70
2022-12-04T05:30:00.140Z,8.42
2022-12-04T05:32:28.970Z,8.60
2022-12-04T05:34:56.981Z,8.55
2022-12-04T05:37:24.459Z,8.63
2022-12-04T05:39:51.027Z,8.50
2022-12-04T05:42:17.511Z,8.62
2022-12-04T05:44:44.064Z,8.56
2022-12-04T05:47:10.698Z,8.61
2022-12-04T05:49:37.261Z,8.60
2022-12-04T05:52:05.622Z,8.65
2022-12-04T05:54:32.126Z,8.71
2022-12-04T05:56:58.957Z,8.58
2022-12-04T05:59:25.511Z,8.55
2022-12-04T06:01:52.269Z,8.61
2022-12-04T06:04:18.970Z,8.56
2022-12-04T06:06:45.503Z,8.44
2022-12-04T06:09:12.543Z,8.67
2022-12-04T06:11:40.609Z,8.69
2022-12-04T06:14:09.112Z,8.50
2022-12-04T06:16:37.983Z,8.56
2022-12-04T06:19:19.672Z,8.51
2022-12-04T06:21:49.197Z,8.58
2022-12-04T06:24:19.263Z,8.67
2022-12-04T06:27:11.087Z,8.63
2022-12-04T06:29:33.384Z,8.60
2022-12-04T06:32:00.037Z,8.60
2022-12-04T06:34:26.900Z,8.65
2022-12-04T06:36:53.400Z,8.44
2022-12-04T06:39:19.916Z,8.63
2022-12-04T06:41:47.616Z,8.60
2022-12-04T06:44:17.350Z,8.60
2022-12-04T06:46:47.215Z,8.55
2022-12-04T06:49:14.525Z,8.68
2022-12-04T06:51:41.180Z,8.59
2022-12-04T06:54:07.752Z,8.15
2022-12-04T06:56:34.764Z,8.21
2022-12-04T06:59:03.472Z,8.43
2022-12-04T07:01:32.247Z,8.44
2022-12-04T07:04:00.878Z,8.45
2022-12-04T07:06:30.532Z,8.49
2022-12-04T07:09:12.135Z,8.66
2022-12-04T07:11:40.107Z,8.64
2022-12-04T07:14:06.906Z,8.58
2022-12-04T07:16:38.618Z,8.72
2022-12-04T07:19:07.570Z,8.66
2022-12-04T07:21:34.632Z,8.79
2022-12-04T07:24:01.692Z,8.55
2022-12-04T07:26:29.885Z,8.64
2022-12-04T07:28:57.817Z,8.66
2022-12-04T07:31:26.034Z,8.55
2022-12-04T07:33:54.583Z,8.41
2022-12-04T07:36:22.948Z,8.35
2022-12-04T07:38:50.416Z,8.51
2022-12-04T07:41:18.149Z,8.55
2022-12-04T07:43:45.035Z,8.69
2022-12-04T07:46:17.803Z,8.66
2022-12-04T07:48:44.453Z,8.64
2022-12-04T07:51:14.012Z,8.75
2022-12-04T07:53:41.093Z,8.76
2022-12-04T07:56:08.161Z,8.51
2022-12-04T07:58:34.849Z,8.65
2022-12-04T08:01:08.845Z,8.70
2022-12-04T08:03:35.528Z,8.66
2022-12-04T08:06:06.633Z,8.66
2022-12-04T08:08:34.435Z,9.12
2022-12-04T08:11:01.635Z,9.26
2022-12-04T08:13:28.150Z,9.32
2022-12-04T08:15:54.652Z,8.90
2022-12-04T08:18:21.208Z,9.18
2022-12-04T08:20:47.785Z,9.24
2022-12-04T08:23:14.311Z,9.38
2022-12-04T08:25:41.161Z,9.45
2022-12-04T08:28:08.029Z,9.51
2022-12-04T08:30:35.520Z,9.39
2022-12-04T08:33:02.853Z,9.33
2022-12-04T08:35:29.381Z,9.21
2022-12-04T08:37:55.929Z,9.46
2022-12-04T08:40:23.248Z,9.46
2022-12-04T08:42:49.789Z,9.39
2022-12-04T08:45:16.516Z,9.44
2022-12-04T08:47:45.791Z,9.48
2022-12-04T08:50:14.542Z,9.43
2022-12-04T08:52:41.067Z,9.40
2022-12-04T08:55:08.136Z,9.52
2022-12-04T08:57:34.667Z,9.43
2022-12-04T09:00:01.613Z,9.45
2022-12-04T09:02:28.167Z,9.58
2022-12-04T09:04:54.770Z,9.63
2022-12-04T09:07:21.321Z,9.39
2022-12-04T09:09:48.538Z,9.40
2022-12-04T09:12:15.173Z,9.50
2022-12-04T09:14:41.710Z,9.74
2022-12-04T09:17:08.375Z,9.88
2022-12-04T09:19:35.893Z,9.90
2022-12-04T09:22:02.790Z,9.91
2022-12-04T09:24:30.832Z,9.96
2022-12-04T09:26:57.392Z,10.06
2022-12-04T09:29:23.897Z,10.15
2022-12-04T09:31:50.445Z,10.22
2022-12-04T09:34:16.999Z,10.24
2022-12-04T09:36:43.516Z,10.32
2022-12-04T09:39:10.263Z,10.43
2022-12-04T09:41:36.725Z,10.49
2022-12-04T09:44:27.519Z,10.49
2022-12-04T09:47:04.095Z,10.50
2022-12-04T09:49:43.182Z,10.61
2022-12-04T09:52:22.005Z,10.54
2022-12-04T09:54:50.702Z,10.38
2022-12-04T09:57:41.851Z,10.46
2022-12-04T10:00:14.063Z,10.50
2022-12-04T10:02:43.127Z,10.66
2022-12-04T10:05:42.146Z,10.66
2022-12-04T10:08:26.445Z,10.55
2022-12-04T10:11:32.354Z,10.33
2022-12-04T10:14:20.888Z,10.54
2022-12-04T10:17:15.976Z,10.72
2022-12-04T10:19:57.011Z,10.59
2022-12-04T10:22:26.395Z,10.49
2022-12-04T10:24:56.242Z,10.62
2022-12-04T10:27:52.685Z,10.82
2022-12-04T10:30:26.421Z,10.77
2022-12-04T10:33:00.840Z,10.74
2022-12-04T10:35:30.079Z,10.85
2022-12-04T10:38:15.082Z,10.78
2022-12-04T10:40:50.075Z,10.77
2022-12-04T10:43:33.283Z,10.76
2022-12-04T10:45:59.867Z,10.84
2022-12-04T10:48:34.117Z,10.85
2022-12-04T10:51:00.809Z,10.84
2022-12-04T10:53:32.107Z,10.81
2022-12-04T10:56:13.141Z,10.72
2022-12-04T10:58:39.861Z,10.65
2022-12-04T11:01:10.180Z,10.76
2022-12-04T11:03:37.430Z,10.83
2022-12-04T11:06:06.307Z,10.84
2022-12-04T11:08:39.564Z,10.76
2022-12-04T11:11:12.658Z,10.37
2022-12-04T11:13:39.869Z,10.72
2022-12-04T11:16:07.544Z,10.81
2022-12-04T11:18:47.262Z,10.16
2022-12-04T11:21:15.692Z,10.56
2022-12-04T11:23:44.887Z,10.64
2022-12-04T11:26:12.546Z,10.81
2022-12-04T11:28:43.476Z,10.84
2022-12-04T11:31:19.924Z,10.80
2022-12-04T11:33:49.955Z,10.86
2022-12-04T11:36:20.685Z,10.93
2022-12-04T11:38:47.795Z,10.86
2022-12-04T11:41:32.157Z,10.90
2022-12-04T11:44:00.771Z,10.96
2022-12-04T11:46:33.885Z,10.86
2022-12-04T11:49:02.924Z,10.94
2022-12-04T11:51:58.972Z,10.97
2022-12-04T11:54:40.648Z,10.78
2022-12-04T11:57:33.188Z,10.77
2022-12-04T12:00:20.584Z,10.79
2022-12-04T12:03:11.955Z,10.74
2022-12-04T12:05:50.200Z,10.87
2022-12-04T12:08:31.084Z,10.92
2022-12-04T12:11:17.841Z,10.88
2022-12-04T12:13:58.516Z,10.83
2022-12-04T12:16:48.513Z,10.73
2022-12-04T12:19:23.640Z,10.78
2022-12-04T12:22:36.228Z,10.90
2022-12-04T12:25:20.819Z,11.08
2022-12-04T12:28:05.318Z,11.19
2022-12-04T12:31:08.525Z,10.91
2022-12-04T12:33:43.343Z,10.44
2022-12-04T12:36:12.587Z,10.74
2022-12-04T12:38:48.215Z,10.69
2022-12-04T12:41:20.911Z,10.94
2022-12-04T12:43:56.333Z,11.12
2022-12-04T12:46:30.739Z,11.17
2022-12-04T12:49:31.326Z,10.95
2022-12-04T12:52:27.399Z,10.98
2022-12-04T12:55:15.767Z,11.00
2022-12-04T12:57:46.460Z,11.10
2022-12-04T13:00:20.390Z,11.11
2022-12-04T13:02:53.549Z,11.08
2022-12-04T13:05:27.701Z,11.13
2022-12-04T13:08:21.450Z,11.23
2022-12-04T13:11:18.863Z,11.26
2022-12-04T13:14:00.692Z,10.90
2022-12-04T13:16:40.860Z,10.97
2022-12-04T13:19:13.483Z,11.12
2022-12-04T13:21:44.082Z,11.22
2022-12-04T13:24:29.390Z,11.25
2022-12-04T13:26:56.589Z,11.27
2022-12-04T13:29:45.821Z,11.26
2022-12-04T13:32:43.052Z,11.28
2022-12-04T13:35:18.789Z,11.31
2022-12-04T13:38:18.353Z,11.27
2022-12-04T13:40:52.294Z,11.20
2022-12-04T13:43:31.038Z,11.35
2022-12-04T13:46:02.031Z,11.35
2022-12-04T13:48:31.660Z,11.42
2022-12-04T13:51:13.660Z,11.35
2022-12-04T13:53:42.413Z,11.27
2022-12-04T13:56:25.793Z,11.20
2022-12-04T13:59:01.196Z,11.27
2022-12-04T14:01:44.738Z,11.29
2022-12-04T14:04:46.581Z,11.27
2022-12-04T14:07:29.948Z,11.25
2022-12-04T14:09:59.357Z,11.40
2022-12-04T14:12:29.988Z,11.40
2022-12-04T14:15:06.882Z,11.33
2022-12-04T14:17:36.277Z,11.13
2022-12-04T14:20:21.731Z,11.29
2022-12-04T14:22:48.256Z,11.24
2022-12-04T14:25:14.729Z,11.19
2022-12-04T14:27:41.225Z,11.21
2022-12-04T14:30:24.751Z,11.13
2022-12-04T14:33:06.666Z,10.71
2022-12-04T14:35:33.505Z,10.76
2022-12-04T14:38:06.636Z,10.81
2022-12-04T14:40:45.541Z,10.80
2022-12-04T14:43:21.521Z,11.00
2022-12-04T14:46:00.254Z,11.07
2022-12-04T14:49:13.174Z,10.82
2022-12-04T14:51:48.561Z,10.97
2022-12-04T14:54:39.811Z,10.94
2022-12-04T14:57:21.416Z,10.85
2022-12-04T14:59:50.900Z,10.67
2022-12-04T15:02:20.716Z,10.64
2022-12-04T15:04:49.958Z,10.47
2022-12-04T15:07:25.081Z,10.44
2022-12-04T15:10:12.861Z,10.70
2022-12-04T15:12:54.504Z,10.75
2022-12-04T15:15:26.963Z,10.75
2022-12-04T15:18:11.385Z,10.67
2022-12-04T15:21:00.290Z,10.67
2022-12-04T15:23:36.335Z,10.25
2022-12-04T15:26:15.863Z,10.45
2022-12-04T15:28:52.572Z,10.58
2022-12-04T15:31:30.021Z,10.18
2022-12-04T15:34:00.606Z,10.13
2022-12-04T15:36:44.549Z,9.57
2022-12-04T15:39:18.704Z,8.85
2022-12-04T15:41:45.235Z,8.88
2022-12-04T15:44:28.983Z,9.54
2022-12-04T15:46:59.996Z,9.58
2022-12-04T15:49:29.510Z,9.24
2022-12-04T15:52:05.100Z,9.51
2022-12-04T15:54:31.908Z,9.33
2022-12-04T15:57:04.105Z,9.62
2022-12-04T15:59:31.128Z,9.13
2022-12-04T16:02:06.001Z,9.35
2022-12-04T16:04:35.513Z,9.55
2022-12-04T16:07:02.501Z,9.59
2022-12-04T16:09:29.025Z,9.68
2022-12-04T16:12:15.861Z,9.89
2022-12-04T16:14:42.388Z,9.53
2022-12-04T16:17:11.838Z,9.59
2022-12-04T16:19:42.363Z,9.75
2022-12-04T16:22:20.617Z,9.61
2022-12-04T16:24:47.817Z,9.83
2022-12-04T16:27:24.099Z,9.95
2022-12-04T16:29:51.616Z,9.45
2022-12-04T16:32:24.332Z,9.47
2022-12-04T16:34:50.874Z,9.56
2022-12-04T16:37:19.559Z,9.49
2022-12-04T16:39:46.961Z,9.48
2022-12-04T16:42:15.704Z,9.60
2022-12-04T16:44:42.234Z,9.62
2022-12-04T16:47:11.382Z,9.79
2022-12-04T16:49:38.219Z,9.76
2022-12-04T16:52:05.062Z,9.88
2022-12-04T16:54:31.597Z,9.54
2022-12-04T16:56:58.113Z,9.75
2022-12-04T16:59:24.614Z,9.85
2022-12-04T17:01:52.773Z,9.69
2022-12-04T17:04:19.589Z,9.96
2022-12-04T17:06:46.767Z,9.84
2022-12-04T17:09:14.288Z,9.64
2022-12-04T17:11:40.869Z,9.91
2022-12-04T17:14:07.849Z,9.99
2022-12-04T17:16:41.550Z,10.09
2022-12-04T17:19:09.490Z,10.00
2022-12-04T17:21:36.080Z,10.08
2022-12-04T17:24:03.459Z,10.21
2022-12-04T17:26:30.023Z,10.17
2022-12-04T17:28:56.549Z,10.08
2022-12-04T17:31:25.908Z,10.07
2022-12-04T17:33:53.305Z,10.09
2022-12-04T17:36:22.858Z,10.24
2022-12-04T17:38:56.955Z,10.16
2022-12-04T17:41:24.501Z,10.21
2022-12-04T17:43:51.194Z,9.77
2022-12-04T17:46:21.559Z,9.95
2022-12-04T17:48:48.941Z,10.04
2022-12-04T17:51:18.280Z,10.16
2022-12-04T17:53:45.264Z,9.68
2022-12-04T17:56:16.071Z,9.83
2022-12-04T17:58:43.332Z,9.98
2022-12-04T18:01:18.882Z,10.13
2022-12-04T18:03:57.009Z,9.80
2022-12-04T18:06:28.993Z,10.00
2022-12-04T18:08:56.325Z,9.91
2022-12-04T18:11:27.363Z,9.91
2022-12-04T18:13:56.700Z,10.04
2022-12-04T18:16:23.888Z,10.13
2022-12-04T18:18:55.953Z,10.07
2022-12-04T18:21:22.925Z,9.89
2022-12-04T18:23:49.814Z,9.98
2022-12-04T18:26:20.078Z,10.18
2022-12-04T18:28:47.586Z,9.68
2022-12-04T18:31:15.487Z,9.90
2022-12-04T18:33:43.084Z,9.91
2022-12-04T18:36:27.570Z,10.06
2022-12-04T18:38:56.513Z,10.07
2022-12-04T18:41:24.168Z,10.11
2022-12-04T18:43:51.280Z,10.16
2022-12-04T18:46:18.540Z,10.16
2022-12-04T18:48:46.464Z,10.29
2022-12-04T18:51:23.410Z,10.35
2022-12-04T18:53:51.885Z,10.11
2022-12-04T18:56:18.836Z,10.18
2022-12-04T18:58:46.668Z,10.03
2022-12-04T19:01:22.421Z,9.98
2022-12-04T19:03:49.021Z,9.94
2022-12-04T19:06:15.883Z,9.99
2022-12-04T19:08:43.517Z,9.78
2022-12-04T19:11:16.002Z,9.94
2022-12-04T19:13:42.630Z,9.38
2022-12-04T19:16:14.156Z,9.63
2022-12-04T19:18:42.154Z,9.93
2022-12-04T19:21:09.084Z,9.66
2022-12-04T19:23:35.618Z,9.16
2022-12-04T19:26:02.487Z,9.41
2022-12-04T19:28:29.514Z,9.42
2022-12-04T19:30:56.428Z,9.69
2022-12-04T19:33:24.682Z,9.93
2022-12-04T19:36:03.883Z,9.82
2022-12-04T19:38:32.664Z,9.75
2022-12-04T19:41:13.876Z,9.83
2022-12-04T19:43:43.488Z,9.78
2022-12-04T19:46:13.274Z,9.84
2022-12-04T19:48:40.651Z,9.76
2022-12-04T19:51:11.060Z,9.63
2022-12-04T19:53:41.123Z,9.85
2022-12-04T19:56:13.018Z,9.96
2022-12-04T19:58:40.131Z,9.50
2022-12-04T20:01:08.295Z,9.12
2022-12-04T20:03:35.805Z,8.93
2022-12-04T20:06:17.931Z,8.84
2022-12-04T20:08:45.584Z,8.98
2022-12-04T20:11:18.500Z,8.84
2022-12-04T20:13:46.848Z,8.78
2022-12-04T20:16:16.116Z,9.33
2022-12-04T20:18:43.809Z,9.10
2022-12-04T20:21:11.299Z,9.13
2022-12-04T20:23:49.436Z,9.31
2022-12-04T20:26:19.536Z,9.17
2022-12-04T20:28:46.104Z,9.45
2022-12-04T20:31:21.530Z,9.30
2022-12-04T20:33:50.597Z,9.39
2022-12-04T20:36:18.848Z,9.50
2022-12-04T20:38:45.845Z,9.63
2022-12-04T20:41:15.795Z,9.54
2022-12-04T20:43:43.504Z,9.56
2022-12-04T20:46:16.845Z,9.74
2022-12-04T20:48:48.152Z,9.71
2022-12-04T20:51:19.196Z,9.77
2022-12-04T20:53:47.068Z,9.86
2022-12-04T20:56:13.999Z,9.84
2022-12-04T20:58:41.027Z,9.80
2022-12-04T21:01:09.777Z,9.76
2022-12-04T21:03:36.677Z,9.88
2022-12-04T21:06:03.673Z,9.88
2022-12-04T21:08:49.387Z,9.56
2022-12-04T21:11:15.996Z,9.39
2022-12-04T21:14:02.417Z,9.30
2022-12-04T21:16:29.012Z,8.99
2022-12-04T21:18:55.586Z,9.46
2022-12-04T21:21:22.131Z,9.51
2022-12-04T21:23:48.676Z,9.21
2022-12-04T21:26:15.265Z,9.43
2022-12-04T21:28:42.366Z,9.34
2022-12-04T21:31:09.068Z,8.87
2022-12-04T21:33:35.677Z,8.83
2022-12-04T21:36:08.590Z,9.36
2022-12-04T21:38:37.217Z,9.13
2022-12-04T21:41:05.558Z,9.24
2022-12-04T21:43:33.210Z,8.92
2022-12-04T21:46:07.477Z,9.33
2022-12-04T21:48:36.284Z,9.52
2022-12-04T21:51:21.264Z,9.53
2022-12-04T21:53:54.790Z,9.55
2022-12-04T21:56:22.544Z,9.45
2022-12-04T21:58:49.271Z,9.60
2022-12-04T22:01:17.033Z,9.46
2022-12-04T22:03:44.340Z,9.51
2022-12-04T22:06:10.925Z,9.52
2022-12-04T22:08:39.706Z,9.47
2022-12-04T22:11:08.111Z,9.07
2022-12-04T22:13:36.070Z,9.38
2022-12-04T22:16:05.139Z,9.57
2022-12-04T22:18:31.943Z,9.24
2022-12-04T22:20:58.481Z,9.18
2022-12-04T22:23:25.036Z,9.15
2022-12-04T22:25:51.924Z,8.61
2022-12-04T22:28:18.870Z,8.60
2022-12-04T22:30:45.384Z,9.12
2022-12-04T22:33:11.884Z,9.24
2022-12-04T22:35:38.388Z,9.27
2022-12-04T22:38:04.956Z,9.39
2022-12-04T22:40:31.459Z,9.42
2022-12-04T22:42:57.956Z,9.73
2022-12-04T22:45:24.449Z,8.66
2022-12-04T22:47:50.951Z,9.19
2022-12-04T22:50:17.724Z,9.13
2022-12-04T22:52:44.728Z,9.16
2022-12-04T22:55:11.212Z,9.39
2022-12-04T22:57:37.797Z,9.38
2022-12-04T23:00:05.599Z,9.31
2022-12-04T23:02:32.888Z,9.52
2022-12-04T23:04:59.441Z,9.64
2022-12-04T23:07:25.990Z,9.72
2022-12-04T23:09:52.676Z,9.77
2022-12-04T23:12:19.237Z,9.81
2022-12-04T23:14:45.749Z,9.93
2022-12-04T23:17:12.276Z,9.73
2022-12-04T23:19:38.795Z,9.50
2022-12-04T23:22:05.309Z,9.83
2022-12-04T23:24:32.056Z,9.95
2022-12-04T23:26:58.621Z,9.76
2022-12-04T23:32:11.659Z,9.88
2022-12-04T23:34:38.517Z,9.92
2022-12-04T23:37:05.056Z,9.70
2022-12-04T23:39:31.567Z,9.71
2022-12-04T23:41:58.060Z,9.81
2022-12-04T23:44:24.605Z,9.92
2022-12-04T23:46:51.213Z,10.00
2022-12-04T23:49:17.824Z,9.65
2022-12-04T23:51:44.346Z,9.73
2022-12-04T23:54:11.187Z,9.66
2022-12-04T23:56:37.912Z,9.40
2022-12-04T23:59:04.429Z,8.96
